createdAt,value
2023-04-29T00:00:08.791Z,99897.94
2023-04-29T00:05:05.806Z,99894.84
2023-04-29T00:10:02.421Z,99897.97
2023-04-29T00:14:59.707Z,99896.00
2023-04-29T00:19:56.116Z,99905.75
2023-04-29T00:24:53.182Z,99920.34
2023-04-29T00:29:49.592Z,99923.41
2023-04-29T00:34:46.173Z,99931.78
2023-04-29T00:39:42.560Z,99923.13
2023-04-29T00:44:38.941Z,99926.91
2023-04-29T00:49:35.447Z,99930.09
2023-04-29T00:54:32.070Z,99934.00
2023-04-29T00:59:32.203Z,99949.56
2023-04-29T01:04:28.771Z,99953.56
2023-04-29T01:10:00.456Z,99965.47
2023-04-29T01:15:12.572Z,99973.09
2023-04-29T01:20:10.346Z,99981.22
2023-04-29T01:25:07.260Z,99988.91
2023-04-29T01:30:12.606Z,99997.25
2023-04-29T01:35:25.075Z,100010.56
2023-04-29T01:40:34.047Z,100016.03
2023-04-29T01:45:34.032Z,100020.88
2023-04-29T01:50:30.418Z,100032.75
2023-04-29T01:55:26.855Z,100022.59
2023-04-29T02:00:23.277Z,100021.22
2023-04-29T02:05:19.665Z,100031.22
2023-04-29T02:10:16.329Z,100034.88
2023-04-29T02:15:12.715Z,100058.31
2023-04-29T02:20:10.775Z,100073.41
2023-04-29T02:25:07.529Z,100083.31
2023-04-29T02:30:04.887Z,100093.94
2023-04-29T02:35:01.303Z,100112.09
2023-04-29T02:39:57.684Z,100122.31
2023-04-29T02:44:54.058Z,100135.00
2023-04-29T02:49:50.679Z,100141.31
2023-04-29T02:54:47.354Z,100153.00
2023-04-29T02:59:44.327Z,100161.97
2023-04-29T03:04:40.870Z,100172.09
2023-04-29T03:09:37.275Z,100175.81
2023-04-29T03:14:33.670Z,100195.50
2023-04-29T03:19:30.180Z,100210.72
2023-04-29T03:24:27.183Z,100230.25
2023-04-29T03:29:23.617Z,100250.03
2023-04-29T03:34:20.748Z,100269.59
2023-04-29T03:39:18.045Z,100270.78
2023-04-29T03:44:14.665Z,100287.66
2023-04-29T03:49:11.042Z,100310.50
2023-04-29T03:54:08.404Z,100316.88
2023-04-29T03:59:04.820Z,100335.47
2023-04-29T04:04:01.677Z,100346.84
2023-04-29T04:08:58.400Z,100367.22
2023-04-29T04:13:54.968Z,100381.34
2023-04-29T04:18:51.341Z,100386.56
2023-04-29T04:23:47.740Z,100406.81
2023-04-29T04:28:44.120Z,100416.41
2023-04-29T04:33:43.474Z,100424.38
2023-04-29T04:38:39.920Z,100436.56
2023-04-29T04:43:36.345Z,100448.03
2023-04-29T04:48:32.726Z,100465.69
2023-04-29T04:53:29.139Z,100484.38
2023-04-29T04:58:26.666Z,100496.06
2023-04-29T05:03:23.260Z,100512.34
2023-04-29T05:08:20.320Z,100521.34
2023-04-29T05:13:16.753Z,100528.59
2023-04-29T05:18:13.271Z,100535.59
2023-04-29T05:23:10.164Z,100538.97
2023-04-29T05:28:07.688Z,100544.84
2023-04-29T05:33:04.110Z,100550.06
2023-04-29T05:38:00.657Z,100540.28
2023-04-29T05:42:57.026Z,100551.72
2023-04-29T05:47:53.452Z,100553.22
2023-04-29T05:52:49.997Z,100541.09
2023-04-29T05:57:46.462Z,100534.13
2023-04-29T06:02:51.005Z,100537.63
2023-04-29T06:07:51.962Z,100538.34
2023-04-29T06:12:51.535Z,100541.88
2023-04-29T06:17:48.746Z,100540.78
2023-04-29T06:22:45.235Z,100543.44
2023-04-29T06:27:41.731Z,100535.28
2023-04-29T06:32:39.370Z,100544.06
2023-04-29T06:37:37.721Z,100537.94
2023-04-29T06:42:34.703Z,100529.31
2023-04-29T06:47:31.231Z,100528.59
2023-04-29T06:52:27.701Z,100532.63
2023-04-29T06:57:24.210Z,100535.91
2023-04-29T07:02:20.749Z,100536.94
2023-04-29T07:07:17.211Z,100530.44
2023-04-29T07:12:13.650Z,100512.66
2023-04-29T07:17:12.047Z,100490.81
2023-04-29T07:22:10.376Z,100467.69
2023-04-29T07:27:06.959Z,100456.84
2023-04-29T07:32:03.821Z,100430.97
2023-04-29T07:37:01.233Z,100414.06
2023-04-29T07:41:57.815Z,100401.72
2023-04-29T07:46:54.310Z,100406.84
2023-04-29T07:51:50.772Z,100410.66
2023-04-29T07:56:47.369Z,100411.41
2023-04-29T08:01:44.215Z,100415.28
2023-04-29T08:06:41.786Z,100419.28
2023-04-29T08:11:39.947Z,100424.41
2023-04-29T08:16:36.544Z,100426.22
2023-04-29T08:21:33.582Z,100441.44
2023-04-29T08:26:30.439Z,100449.81
2023-04-29T08:31:27.504Z,100457.19
2023-04-29T08:36:24.213Z,100464.47
2023-04-29T08:41:20.647Z,100458.91
2023-04-29T08:46:18.516Z,100464.72
2023-04-29T08:51:15.096Z,100475.25
2023-04-29T08:56:23.158Z,100474.06
2023-04-29T09:01:20.645Z,100491.59
2023-04-29T09:06:17.846Z,100488.19
2023-04-29T09:11:14.650Z,100488.44
2023-04-29T09:16:12.774Z,100491.72
2023-04-29T09:21:22.017Z,100492.69
2023-04-29T09:26:19.957Z,100502.47
2023-04-29T09:31:28.067Z,100510.00
2023-04-29T09:36:47.766Z,100499.47
2023-04-29T09:41:53.083Z,100493.47
2023-04-29T09:47:09.399Z,100500.63
2023-04-29T09:52:11.078Z,100510.66
2023-04-29T09:57:09.358Z,100512.50
2023-04-29T10:02:17.791Z,100521.00
2023-04-29T10:07:20.095Z,100524.22
2023-04-29T10:12:18.921Z,100542.47
2023-04-29T10:17:26.256Z,100546.16
2023-04-29T10:22:33.683Z,100539.09
2023-04-29T10:27:34.199Z,100540.84
2023-04-29T10:32:39.945Z,100546.69
2023-04-29T10:37:48.552Z,100540.44
2023-04-29T10:42:45.855Z,100544.00
2023-04-29T10:47:42.542Z,100546.47
2023-04-29T10:52:52.498Z,100544.25
2023-04-29T10:57:49.308Z,100552.88
2023-04-29T11:02:45.814Z,100552.22
2023-04-29T11:07:44.391Z,100541.72
2023-04-29T11:12:40.992Z,100545.50
2023-04-29T11:17:38.468Z,100542.22
2023-04-29T11:22:35.381Z,100554.22
2023-04-29T11:27:36.345Z,100549.09
2023-04-29T11:32:35.349Z,100546.78
2023-04-29T11:37:32.724Z,100567.25
2023-04-29T11:42:29.425Z,100568.41
2023-04-29T11:47:27.513Z,100576.41
2023-04-29T11:52:23.934Z,100587.13
2023-04-29T11:57:20.371Z,100593.00
2023-04-29T12:02:17.051Z,100589.44
2023-04-29T12:07:17.449Z,100598.94
2023-04-29T12:12:14.800Z,100596.38
2023-04-29T12:17:11.938Z,100594.28
2023-04-29T12:22:08.512Z,100593.34
2023-04-29T12:27:08.549Z,100591.03
2023-04-29T12:32:05.124Z,100591.66
2023-04-29T12:37:02.087Z,100599.88
2023-04-29T12:41:59.488Z,100607.91
2023-04-29T12:46:58.382Z,100610.81
2023-04-29T12:51:55.179Z,100606.47
2023-04-29T12:56:52.201Z,100605.38
2023-04-29T13:01:48.844Z,100614.97
2023-04-29T13:06:45.392Z,100623.13
2023-04-29T13:11:42.247Z,100622.69
2023-04-29T13:16:38.825Z,100617.94
2023-04-29T13:21:35.320Z,100621.31
2023-04-29T13:26:32.242Z,100620.81
2023-04-29T13:31:29.053Z,100620.34
2023-04-29T13:36:28.588Z,100621.66
2023-04-29T13:41:26.521Z,100616.00
2023-04-29T13:46:23.058Z,100616.41
2023-04-29T14:02:00.468Z,100619.75
2023-04-29T14:06:35.230Z,100631.59
2023-04-29T14:11:36.395Z,100627.19
2023-04-29T14:16:33.282Z,100634.84
2023-04-29T14:21:30.054Z,100630.47
2023-04-29T14:26:28.380Z,100638.53
2023-04-29T14:31:38.440Z,100642.75
2023-04-29T14:36:35.043Z,100640.25
2023-04-29T14:41:31.556Z,100647.47
2023-04-29T14:46:29.110Z,100651.38
2023-04-29T14:51:25.730Z,100655.28
2023-04-29T14:56:22.305Z,100662.53
2023-04-29T15:01:18.770Z,100663.94
2023-04-29T15:06:15.408Z,100668.56
2023-04-29T15:11:11.818Z,100674.34
2023-04-29T15:16:08.890Z,100669.28
2023-04-29T15:21:05.555Z,100667.41
2023-04-29T15:26:02.045Z,100679.91
2023-04-29T15:30:59.915Z,100682.31
2023-04-29T15:35:56.889Z,100678.69
2023-04-29T15:40:59.164Z,100688.06
2023-04-29T15:45:56.110Z,100698.28
2023-04-29T15:50:53.544Z,100707.06
2023-04-29T15:55:50.190Z,100700.88
2023-04-29T16:00:47.213Z,100700.19
2023-04-29T16:05:43.682Z,100700.53
2023-04-29T16:10:40.197Z,100700.84
2023-04-29T16:15:36.750Z,100700.81
2023-04-29T16:20:33.383Z,100700.84
2023-04-29T16:25:29.771Z,100708.09
2023-04-29T16:30:26.157Z,100708.03
2023-04-29T16:35:26.312Z,100716.13
2023-04-29T16:40:24.052Z,100716.19
2023-04-29T16:45:23.630Z,100722.84
2023-04-29T16:50:20.420Z,100719.69
2023-04-29T16:55:16.957Z,100733.31
2023-04-29T17:00:13.965Z,100740.03
2023-04-29T17:05:10.922Z,100737.47
2023-04-29T17:10:08.253Z,100740.13
2023-04-29T17:15:05.961Z,100748.16
2023-04-29T17:20:02.526Z,100749.59
2023-04-29T17:24:58.992Z,100751.56
2023-04-29T17:29:55.866Z,100746.22
2023-04-29T17:34:53.296Z,100751.84
2023-04-29T17:39:49.770Z,100748.69
2023-04-29T17:44:46.614Z,100758.19
2023-04-29T17:49:43.816Z,100760.59
2023-04-29T17:54:41.146Z,100760.06
2023-04-29T17:59:37.534Z,100757.69
2023-04-29T18:04:34.022Z,100753.94
2023-04-29T18:09:30.558Z,100755.94
2023-04-29T18:14:29.055Z,100750.59
2023-04-29T18:19:25.792Z,100759.09
2023-04-29T18:24:22.526Z,100766.22
2023-04-29T18:29:18.930Z,100761.34
2023-04-29T18:34:15.865Z,100775.31
2023-04-29T18:39:12.288Z,100778.38
2023-04-29T18:44:08.772Z,100787.47
2023-04-29T18:49:05.201Z,100796.88
2023-04-29T18:54:01.616Z,100799.78
2023-04-29T18:58:58.064Z,100802.78
2023-04-29T19:03:55.318Z,100808.16
2023-04-29T19:08:51.735Z,100808.84
2023-04-29T19:13:48.136Z,100829.88
2023-04-29T19:18:45.518Z,100831.06
2023-04-29T19:23:42.153Z,100834.50
2023-04-29T19:28:38.594Z,100841.25
2023-04-29T19:33:35.279Z,100842.06
2023-04-29T19:38:31.699Z,100847.13
2023-04-29T19:43:28.475Z,100845.97
2023-04-29T19:48:25.010Z,100859.41
2023-04-29T19:53:21.602Z,100851.66
2023-04-29T19:58:18.214Z,100849.94
2023-04-29T20:03:14.764Z,100855.03
2023-04-29T20:08:11.227Z,100852.69
2023-04-29T20:13:07.889Z,100860.75
2023-04-29T20:18:04.472Z,100860.94
2023-04-29T20:23:01.013Z,100875.78
2023-04-29T20:27:57.594Z,100870.72
2023-04-29T20:32:54.447Z,100883.38
2023-04-29T20:37:51.276Z,100894.19
2023-04-29T20:42:47.837Z,100898.13
2023-04-29T20:47:44.469Z,100905.91
2023-04-29T20:52:41.681Z,100907.59
2023-04-29T20:57:38.572Z,100908.69
2023-04-29T21:02:35.054Z,100923.13
2023-04-29T21:07:31.497Z,100928.50
2023-04-29T21:12:27.952Z,100933.66
2023-04-29T21:17:24.395Z,100933.50
2023-04-29T21:22:20.828Z,100933.06
2023-04-29T21:27:17.399Z,100940.44
2023-04-29T21:32:14.723Z,100947.63
2023-04-29T21:37:11.115Z,100951.41
2023-04-29T21:42:09.666Z,100946.50
2023-04-29T21:47:06.970Z,100948.38
2023-04-29T21:52:03.848Z,100951.63
2023-04-29T21:57:00.566Z,100961.91
2023-04-29T22:02:00.607Z,100950.22
2023-04-29T22:06:57.314Z,100969.91
2023-04-29T22:11:53.760Z,100966.66
2023-04-29T22:16:50.227Z,100967.31
2023-04-29T22:21:46.805Z,100970.22
2023-04-29T22:26:43.349Z,100970.00
2023-04-29T22:31:39.845Z,100981.00
2023-04-29T22:36:36.583Z,100975.56
2023-04-29T22:41:33.091Z,100979.25
2023-04-29T22:46:29.498Z,100984.31
2023-04-29T22:51:26.678Z,100989.19
2023-04-29T22:56:24.592Z,100989.69
2023-04-29T23:01:21.347Z,100989.69
2023-04-29T23:06:17.820Z,100994.28
2023-04-29T23:11:14.711Z,100996.16
2023-04-29T23:16:11.473Z,101007.59
2023-04-29T23:21:07.930Z,101003.50
2023-04-29T23:26:04.392Z,101002.25
2023-04-29T23:31:00.914Z,101006.94
2023-04-29T23:35:57.345Z,100999.63
2023-04-29T23:40:53.755Z,101001.72
2023-04-29T23:45:50.227Z,101005.59
2023-04-29T23:50:47.363Z,101004.47
2023-04-29T23:55:43.724Z,101015.28
